sensor_id;sensor_type;location;lat;lon;timestamp;temperature;humidity
70826;SHT31;58446;41.490;22.098;2023-07-13T00:00:12;27.59;54.91
70826;SHT31;58446;41.490;22.098;2023-07-13T00:02:41;27.64;54.99
70826;SHT31;58446;41.490;22.098;2023-07-13T00:05:07;27.80;54.53
70826;SHT31;58446;41.490;22.098;2023-07-13T00:07:34;27.86;54.25
70826;SHT31;58446;41.490;22.098;2023-07-13T00:09:59;27.84;53.91
70826;SHT31;58446;41.490;22.098;2023-07-13T00:12:34;27.73;54.10
70826;SHT31;58446;41.490;22.098;2023-07-13T00:15:03;27.61;54.22
70826;SHT31;58446;41.490;22.098;2023-07-13T00:17:29;27.61;54.11
70826;SHT31;58446;41.490;22.098;2023-07-13T00:19:55;27.51;54.18
70826;SHT31;58446;41.490;22.098;2023-07-13T00:22:23;27.30;54.74
70826;SHT31;58446;41.490;22.098;2023-07-13T00:24:53;27.09;55.29
70826;SHT31;58446;41.490;22.098;2023-07-13T00:27:20;27.20;55.28
70826;SHT31;58446;41.490;22.098;2023-07-13T00:29:46;27.30;55.06
70826;SHT31;58446;41.490;22.098;2023-07-13T00:32:12;27.46;55.04
70826;SHT31;58446;41.490;22.098;2023-07-13T00:34:38;27.51;54.86
70826;SHT31;58446;41.490;22.098;2023-07-13T00:37:05;27.45;54.61
70826;SHT31;58446;41.490;22.098;2023-07-13T00:39:32;27.37;54.63
70826;SHT31;58446;41.490;22.098;2023-07-13T00:41:59;27.22;55.09
70826;SHT31;58446;41.490;22.098;2023-07-13T00:44:26;27.35;54.71
70826;SHT31;58446;41.490;22.098;2023-07-13T00:46:51;27.19;55.14
70826;SHT31;58446;41.490;22.098;2023-07-13T00:49:22;26.75;56.00
70826;SHT31;58446;41.490;22.098;2023-07-13T00:51:52;26.48;56.61
70826;SHT31;58446;41.490;22.098;2023-07-13T00:54:48;26.04;58.16
70826;SHT31;58446;41.490;22.098;2023-07-13T00:57:17;26.45;56.93
70826;SHT31;58446;41.490;22.098;2023-07-13T00:59:55;26.89;55.88
70826;SHT31;58446;41.490;22.098;2023-07-13T01:02:24;26.89;56.06
70826;SHT31;58446;41.490;22.098;2023-07-13T01:04:50;26.72;55.97
70826;SHT31;58446;41.490;22.098;2023-07-13T01:07:16;26.61;56.17
70826;SHT31;58446;41.490;22.098;2023-07-13T01:09:43;26.24;56.40
70826;SHT31;58446;41.490;22.098;2023-07-13T01:12:11;26.30;56.97
70826;SHT31;58446;41.490;22.098;2023-07-13T01:14:37;26.27;57.05
70826;SHT31;58446;41.490;22.098;2023-07-13T01:17:03;26.38;56.82
70826;SHT31;58446;41.490;22.098;2023-07-13T01:19:44;26.51;56.52
70826;SHT31;58446;41.490;22.098;2023-07-13T01:22:18;26.61;56.24
70826;SHT31;58446;41.490;22.098;2023-07-13T01:24:46;26.51;56.39
70826;SHT31;58446;41.490;22.098;2023-07-13T01:27:14;26.54;56.23
70826;SHT31;58446;41.490;22.098;2023-07-13T01:29:41;26.67;56.07
70826;SHT31;58446;41.490;22.098;2023-07-13T01:32:14;26.79;55.81
70826;SHT31;58446;41.490;22.098;2023-07-13T01:34:40;26.84;55.70
70826;SHT31;58446;41.490;22.098;2023-07-13T01:37:10;26.72;56.08
70826;SHT31;58446;41.490;22.098;2023-07-13T01:39:36;26.61;56.27
70826;SHT31;58446;41.490;22.098;2023-07-13T01:42:03;26.61;56.38
70826;SHT31;58446;41.490;22.098;2023-07-13T01:44:29;26.64;56.39
70826;SHT31;58446;41.490;22.098;2023-07-13T01:46:54;26.65;56.32
70826;SHT31;58446;41.490;22.098;2023-07-13T01:49:20;26.58;56.51
70826;SHT31;58446;41.490;22.098;2023-07-13T01:51:46;26.44;56.59
70826;SHT31;58446;41.490;22.098;2023-07-13T01:54:12;26.30;57.08
70826;SHT31;58446;41.490;22.098;2023-07-13T01:56:38;26.41;56.75
70826;SHT31;58446;41.490;22.098;2023-07-13T01:59:05;26.58;56.45
70826;SHT31;58446;41.490;22.098;2023-07-13T02:01:30;26.58;56.25
70826;SHT31;58446;41.490;22.098;2023-07-13T02:03:56;26.36;56.81
70826;SHT31;58446;41.490;22.098;2023-07-13T02:06:22;26.26;56.80
70826;SHT31;58446;41.490;22.098;2023-07-13T02:08:47;26.17;56.48
70826;SHT31;58446;41.490;22.098;2023-07-13T02:11:13;26.18;56.80
70826;SHT31;58446;41.490;22.098;2023-07-13T02:13:39;26.06;56.99
70826;SHT31;58446;41.490;22.098;2023-07-13T02:16:05;26.07;56.86
70826;SHT31;58446;41.490;22.098;2023-07-13T02:18:32;26.04;57.01
70826;SHT31;58446;41.490;22.098;2023-07-13T02:20:57;25.99;57.08
70826;SHT31;58446;41.490;22.098;2023-07-13T02:23:23;25.93;57.29
70826;SHT31;58446;41.490;22.098;2023-07-13T02:25:49;26.18;56.73
70826;SHT31;58446;41.490;22.098;2023-07-13T02:28:14;26.14;56.84
70826;SHT31;58446;41.490;22.098;2023-07-13T02:30:40;26.24;56.52
70826;SHT31;58446;41.490;22.098;2023-07-13T02:33:06;26.13;57.05
70826;SHT31;58446;41.490;22.098;2023-07-13T02:35:31;26.30;56.55
70826;SHT31;58446;41.490;22.098;2023-07-13T02:37:57;26.21;56.72
70826;SHT31;58446;41.490;22.098;2023-07-13T02:40:23;26.28;56.59
70826;SHT31;58446;41.490;22.098;2023-07-13T02:42:49;26.12;56.81
70826;SHT31;58446;41.490;22.098;2023-07-13T02:45:14;26.07;56.81
70826;SHT31;58446;41.490;22.098;2023-07-13T02:47:41;26.12;56.51
70826;SHT31;58446;41.490;22.098;2023-07-13T02:50:08;25.89;57.08
70826;SHT31;58446;41.490;22.098;2023-07-13T02:52:33;25.78;57.56
70826;SHT31;58446;41.490;22.098;2023-07-13T02:54:59;25.61;57.78
70826;SHT31;58446;41.490;22.098;2023-07-13T02:57:25;24.74;59.88
70826;SHT31;58446;41.490;22.098;2023-07-13T02:59:52;24.68;60.02
70826;SHT31;58446;41.490;22.098;2023-07-13T03:02:18;25.04;59.20
70826;SHT31;58446;41.490;22.098;2023-07-13T03:04:43;25.06;59.19
70826;SHT31;58446;41.490;22.098;2023-07-13T03:07:09;25.32;58.63
70826;SHT31;58446;41.490;22.098;2023-07-13T03:09:35;25.58;57.92
70826;SHT31;58446;41.490;22.098;2023-07-13T03:12:01;25.70;57.84
70826;SHT31;58446;41.490;22.098;2023-07-13T03:14:28;25.85;57.29
70826;SHT31;58446;41.490;22.098;2023-07-13T03:16:53;25.87;57.15
70826;SHT31;58446;41.490;22.098;2023-07-13T03:19:19;25.82;57.27
70826;SHT31;58446;41.490;22.098;2023-07-13T03:21:45;25.76;57.34
70826;SHT31;58446;41.490;22.098;2023-07-13T03:24:11;25.78;57.25
70826;SHT31;58446;41.490;22.098;2023-07-13T03:26:36;25.75;57.33
70826;SHT31;58446;41.490;22.098;2023-07-13T03:29:02;25.61;57.55
70826;SHT31;58446;41.490;22.098;2023-07-13T03:31:32;25.63;57.55
70826;SHT31;58446;41.490;22.098;2023-07-13T03:33:58;25.63;57.52
70826;SHT31;58446;41.490;22.098;2023-07-13T03:36:26;25.70;57.87
70826;SHT31;58446;41.490;22.098;2023-07-13T03:38:55;25.55;58.53
70826;SHT31;58446;41.490;22.098;2023-07-13T03:41:22;25.35;59.14
70826;SHT31;58446;41.490;22.098;2023-07-13T03:43:48;25.31;58.75
70826;SHT31;58446;41.490;22.098;2023-07-13T03:46:14;25.34;58.74
70826;SHT31;58446;41.490;22.098;2023-07-13T03:48:41;25.43;58.55
70826;SHT31;58446;41.490;22.098;2023-07-13T03:51:09;25.52;58.37
70826;SHT31;58446;41.490;22.098;2023-07-13T03:53:39;25.63;58.09
70826;SHT31;58446;41.490;22.098;2023-07-13T03:56:06;25.80;57.68
70826;SHT31;58446;41.490;22.098;2023-07-13T03:58:37;25.92;57.30
70826;SHT31;58446;41.490;22.098;2023-07-13T04:01:05;26.09;57.10
70826;SHT31;58446;41.490;22.098;2023-07-13T04:03:32;26.14;56.90
70826;SHT31;58446;41.490;22.098;2023-07-13T04:06:04;26.07;56.94
70826;SHT31;58446;41.490;22.098;2023-07-13T04:08:33;26.04;57.16
70826;SHT31;58446;41.490;22.098;2023-07-13T04:10:59;26.01;57.11
70826;SHT31;58446;41.490;22.098;2023-07-13T04:13:26;26.12;56.85
70826;SHT31;58446;41.490;22.098;2023-07-13T04:15:52;26.30;56.49
70826;SHT31;58446;41.490;22.098;2023-07-13T04:18:19;26.59;55.53
70826;SHT31;58446;41.490;22.098;2023-07-13T04:20:46;26.65;55.73
70826;SHT31;58446;41.490;22.098;2023-07-13T04:23:12;26.51;56.71
70826;SHT31;58446;41.490;22.098;2023-07-13T04:25:38;26.27;58.27
70826;SHT31;58446;41.490;22.098;2023-07-13T04:28:04;26.41;56.93
70826;SHT31;58446;41.490;22.098;2023-07-13T04:30:30;26.36;57.82
70826;SHT31;58446;41.490;22.098;2023-07-13T04:32:56;26.41;57.69
70826;SHT31;58446;41.490;22.098;2023-07-13T04:35:22;26.45;58.01
70826;SHT31;58446;41.490;22.098;2023-07-13T04:37:48;26.48;58.39
70826;SHT31;58446;41.490;22.098;2023-07-13T04:40:19;26.34;58.56
70826;SHT31;58446;41.490;22.098;2023-07-13T04:42:45;26.41;58.27
70826;SHT31;58446;41.490;22.098;2023-07-13T04:45:12;26.61;57.32
70826;SHT31;58446;41.490;22.098;2023-07-13T04:47:38;26.69;57.65
70826;SHT31;58446;41.490;22.098;2023-07-13T04:50:05;26.77;57.07
70826;SHT31;58446;41.490;22.098;2023-07-13T04:52:31;26.89;56.87
70826;SHT31;58446;41.490;22.098;2023-07-13T04:54:58;26.89;56.40
70826;SHT31;58446;41.490;22.098;2023-07-13T04:57:25;26.88;56.80
70826;SHT31;58446;41.490;22.098;2023-07-13T04:59:51;27.00;56.34
70826;SHT31;58446;41.490;22.098;2023-07-13T05:02:16;27.08;56.41
70826;SHT31;58446;41.490;22.098;2023-07-13T05:04:42;27.19;56.44
70826;SHT31;58446;41.490;22.098;2023-07-13T05:07:08;27.42;55.88
70826;SHT31;58446;41.490;22.098;2023-07-13T05:09:33;27.60;54.74
70826;SHT31;58446;41.490;22.098;2023-07-13T05:11:59;27.70;54.50
70826;SHT31;58446;41.490;22.098;2023-07-13T05:14:25;27.90;54.36
70826;SHT31;58446;41.490;22.098;2023-07-13T05:16:50;28.18;53.75
70826;SHT31;58446;41.490;22.098;2023-07-13T05:19:16;28.15;53.66
70826;SHT31;58446;41.490;22.098;2023-07-13T05:21:42;28.37;53.23
70826;SHT31;58446;41.490;22.098;2023-07-13T05:24:07;28.44;52.59
70826;SHT31;58446;41.490;22.098;2023-07-13T05:26:33;28.60;51.74
70826;SHT31;58446;41.490;22.098;2023-07-13T05:28:58;28.79;51.08
70826;SHT31;58446;41.490;22.098;2023-07-13T05:31:25;28.77;51.26
70826;SHT31;58446;41.490;22.098;2023-07-13T05:33:50;28.83;51.21
70826;SHT31;58446;41.490;22.098;2023-07-13T05:36:16;28.87;51.28
70826;SHT31;58446;41.490;22.098;2023-07-13T05:38:41;29.13;49.55
70826;SHT31;58446;41.490;22.098;2023-07-13T05:41:07;29.16;48.91
70826;SHT31;58446;41.490;22.098;2023-07-13T05:43:34;29.02;49.34
70826;SHT31;58446;41.490;22.098;2023-07-13T05:45:59;29.06;50.15
70826;SHT31;58446;41.490;22.098;2023-07-13T05:48:25;29.16;50.03
70826;SHT31;58446;41.490;22.098;2023-07-13T05:50:51;29.23;48.03
70826;SHT31;58446;41.490;22.098;2023-07-13T05:53:17;29.38;48.11
70826;SHT31;58446;41.490;22.098;2023-07-13T05:55:43;29.44;47.60
70826;SHT31;58446;41.490;22.098;2023-07-13T05:58:10;29.54;47.36
70826;SHT31;58446;41.490;22.098;2023-07-13T06:00:36;29.81;47.83
70826;SHT31;58446;41.490;22.098;2023-07-13T06:03:02;29.79;47.97
70826;SHT31;58446;41.490;22.098;2023-07-13T06:05:28;29.77;47.71
70826;SHT31;58446;41.490;22.098;2023-07-13T06:07:54;29.67;48.18
70826;SHT31;58446;41.490;22.098;2023-07-13T06:10:20;29.90;48.46
70826;SHT31;58446;41.490;22.098;2023-07-13T06:12:46;30.08;48.83
70826;SHT31;58446;41.490;22.098;2023-07-13T06:15:12;30.35;47.99
70826;SHT31;58446;41.490;22.098;2023-07-13T06:17:37;30.49;47.74
70826;SHT31;58446;41.490;22.098;2023-07-13T06:20:03;30.60;47.39
70826;SHT31;58446;41.490;22.098;2023-07-13T06:22:29;30.67;46.37
70826;SHT31;58446;41.490;22.098;2023-07-13T06:24:55;30.66;46.32
70826;SHT31;58446;41.490;22.098;2023-07-13T06:27:21;30.80;46.59
70826;SHT31;58446;41.490;22.098;2023-07-13T06:29:46;30.97;46.33
70826;SHT31;58446;41.490;22.098;2023-07-13T06:32:12;30.94;45.74
70826;SHT31;58446;41.490;22.098;2023-07-13T06:34:38;31.08;45.68
70826;SHT31;58446;41.490;22.098;2023-07-13T06:37:04;31.01;45.18
70826;SHT31;58446;41.490;22.098;2023-07-13T06:39:29;30.99;45.09
70826;SHT31;58446;41.490;22.098;2023-07-13T06:41:55;31.19;44.90
70826;SHT31;58446;41.490;22.098;2023-07-13T06:44:21;31.35;44.84
70826;SHT31;58446;41.490;22.098;2023-07-13T06:46:46;31.52;44.57
70826;SHT31;58446;41.490;22.098;2023-07-13T06:49:12;31.67;44.03
70826;SHT31;58446;41.490;22.098;2023-07-13T06:51:38;31.80;43.82
70826;SHT31;58446;41.490;22.098;2023-07-13T06:54:03;31.94;44.41
70826;SHT31;58446;41.490;22.098;2023-07-13T06:56:29;31.89;43.23
70826;SHT31;58446;41.490;22.098;2023-07-13T06:58:55;31.73;43.61
70826;SHT31;58446;41.490;22.098;2023-07-13T07:01:20;31.86;44.54
70826;SHT31;58446;41.490;22.098;2023-07-13T07:03:46;31.93;45.51
70826;SHT31;58446;41.490;22.098;2023-07-13T07:06:20;32.10;42.74
70826;SHT31;58446;41.490;22.098;2023-07-13T07:08:49;32.24;41.15
70826;SHT31;58446;41.490;22.098;2023-07-13T07:11:20;32.24;41.72
70826;SHT31;58446;41.490;22.098;2023-07-13T07:13:48;32.27;42.65
70826;SHT31;58446;41.490;22.098;2023-07-13T07:16:14;32.44;41.98
70826;SHT31;58446;41.490;22.098;2023-07-13T07:18:40;32.50;41.66
70826;SHT31;58446;41.490;22.098;2023-07-13T07:21:05;32.57;41.02
70826;SHT31;58446;41.490;22.098;2023-07-13T07:23:31;32.61;40.56
70826;SHT31;58446;41.490;22.098;2023-07-13T07:25:57;32.61;40.95
70826;SHT31;58446;41.490;22.098;2023-07-13T07:28:23;32.61;41.15
70826;SHT31;58446;41.490;22.098;2023-07-13T07:30:52;32.78;42.23
70826;SHT31;58446;41.490;22.098;2023-07-13T07:33:17;32.96;41.90
70826;SHT31;58446;41.490;22.098;2023-07-13T07:35:43;33.09;40.57
70826;SHT31;58446;41.490;22.098;2023-07-13T07:38:09;33.05;41.48
70826;SHT31;58446;41.490;22.098;2023-07-13T07:40:41;33.12;40.00
70826;SHT31;58446;41.490;22.098;2023-07-13T07:43:08;32.98;40.36
70826;SHT31;58446;41.490;22.098;2023-07-13T07:45:34;32.79;40.15
70826;SHT31;58446;41.490;22.098;2023-07-13T07:47:59;32.85;41.18
70826;SHT31;58446;41.490;22.098;2023-07-13T07:50:26;32.70;42.08
70826;SHT31;58446;41.490;22.098;2023-07-13T07:52:52;32.67;42.28
70826;SHT31;58446;41.490;22.098;2023-07-13T07:55:18;32.65;44.51
70826;SHT31;58446;41.490;22.098;2023-07-13T07:57:44;32.63;43.45
70826;SHT31;58446;41.490;22.098;2023-07-13T08:00:10;32.38;43.06
70826;SHT31;58446;41.490;22.098;2023-07-13T08:02:36;32.37;43.94
70826;SHT31;58446;41.490;22.098;2023-07-13T08:05:02;32.72;43.06
70826;SHT31;58446;41.490;22.098;2023-07-13T08:07:30;33.02;41.44
70826;SHT31;58446;41.490;22.098;2023-07-13T08:09:56;33.23;41.67
70826;SHT31;58446;41.490;22.098;2023-07-13T08:12:22;33.29;42.31
70826;SHT31;58446;41.490;22.098;2023-07-13T08:14:50;33.33;42.04
70826;SHT31;58446;41.490;22.098;2023-07-13T08:17:20;33.45;40.84
70826;SHT31;58446;41.490;22.098;2023-07-13T08:19:46;33.60;40.76
70826;SHT31;58446;41.490;22.098;2023-07-13T08:22:12;33.76;40.25
70826;SHT31;58446;41.490;22.098;2023-07-13T08:24:38;33.93;40.63
70826;SHT31;58446;41.490;22.098;2023-07-13T08:27:04;34.03;39.92
70826;SHT31;58446;41.490;22.098;2023-07-13T08:29:30;34.13;41.32
70826;SHT31;58446;41.490;22.098;2023-07-13T08:31:58;34.04;39.11
70826;SHT31;58446;41.490;22.098;2023-07-13T08:34:24;33.94;38.51
70826;SHT31;58446;41.490;22.098;2023-07-13T08:36:50;33.86;38.59
70826;SHT31;58446;41.490;22.098;2023-07-13T08:39:15;33.93;38.56
70826;SHT31;58446;41.490;22.098;2023-07-13T08:41:41;33.52;40.33
70826;SHT31;58446;41.490;22.098;2023-07-13T08:44:26;33.55;40.34
70826;SHT31;58446;41.490;22.098;2023-07-13T08:46:55;33.74;39.75
70826;SHT31;58446;41.490;22.098;2023-07-13T08:49:24;34.00;39.53
70826;SHT31;58446;41.490;22.098;2023-07-13T08:52:26;34.23;40.40
70826;SHT31;58446;41.490;22.098;2023-07-13T08:54:50;34.38;39.30
70826;SHT31;58446;41.490;22.098;2023-07-13T08:57:21;34.51;38.40
70826;SHT31;58446;41.490;22.098;2023-07-13T08:59:50;34.56;38.29
70826;SHT31;58446;41.490;22.098;2023-07-13T09:02:39;34.75;38.49
70826;SHT31;58446;41.490;22.098;2023-07-13T09:05:22;34.82;38.62
70826;SHT31;58446;41.490;22.098;2023-07-13T09:14:13;34.85;37.70
70826;SHT31;58446;41.490;22.098;2023-07-13T09:16:42;34.82;36.23
70826;SHT31;58446;41.490;22.098;2023-07-13T09:19:16;34.74;35.83
70826;SHT31;58446;41.490;22.098;2023-07-13T09:21:45;34.82;36.61
70826;SHT31;58446;41.490;22.098;2023-07-13T09:24:37;34.86;36.07
70826;SHT31;58446;41.490;22.098;2023-07-13T09:27:32;34.71;35.46
70826;SHT31;58446;41.490;22.098;2023-07-13T09:32:43;34.68;35.54
70826;SHT31;58446;41.490;22.098;2023-07-13T09:35:11;34.83;35.36
70826;SHT31;58446;41.490;22.098;2023-07-13T09:37:38;34.82;34.96
70826;SHT31;58446;41.490;22.098;2023-07-13T09:40:13;34.93;35.52
70826;SHT31;58446;41.490;22.098;2023-07-13T09:42:42;35.02;36.51
70826;SHT31;58446;41.490;22.098;2023-07-13T09:45:08;35.09;36.52
70826;SHT31;58446;41.490;22.098;2023-07-13T09:47:39;35.23;37.43
70826;SHT31;58446;41.490;22.098;2023-07-13T09:50:16;35.34;36.36
70826;SHT31;58446;41.490;22.098;2023-07-13T09:52:47;35.42;36.34
70826;SHT31;58446;41.490;22.098;2023-07-13T09:55:39;35.51;36.08
70826;SHT31;58446;41.490;22.098;2023-07-13T09:58:14;35.57;36.71
70826;SHT31;58446;41.490;22.098;2023-07-13T10:00:53;35.53;33.43
70826;SHT31;58446;41.490;22.098;2023-07-13T10:03:22;35.43;33.00
70826;SHT31;58446;41.490;22.098;2023-07-13T10:05:50;35.42;33.93
70826;SHT31;58446;41.490;22.098;2023-07-13T10:08:26;35.42;34.09
70826;SHT31;58446;41.490;22.098;2023-07-13T10:11:01;35.43;32.91
70826;SHT31;58446;41.490;22.098;2023-07-13T10:13:32;35.43;34.53
70826;SHT31;58446;41.490;22.098;2023-07-13T10:16:00;35.51;35.43
70826;SHT31;58446;41.490;22.098;2023-07-13T10:18:27;35.63;35.01
70826;SHT31;58446;41.490;22.098;2023-07-13T10:21:04;35.73;31.14
70826;SHT31;58446;41.490;22.098;2023-07-13T10:23:35;35.67;32.89
70826;SHT31;58446;41.490;22.098;2023-07-13T10:26:01;35.71;31.43
70826;SHT31;58446;41.490;22.098;2023-07-13T10:28:33;35.80;30.61
70826;SHT31;58446;41.490;22.098;2023-07-13T10:31:01;35.83;31.05
70826;SHT31;58446;41.490;22.098;2023-07-13T10:33:28;35.85;27.99
70826;SHT31;58446;41.490;22.098;2023-07-13T10:38:59;35.71;31.34
70826;SHT31;58446;41.490;22.098;2023-07-13T10:41:27;35.78;29.43
70826;SHT31;58446;41.490;22.098;2023-07-13T10:43:55;35.83;29.51
70826;SHT31;58446;41.490;22.098;2023-07-13T10:46:25;35.91;31.61
70826;SHT31;58446;41.490;22.098;2023-07-13T10:48:58;36.09;29.33
70826;SHT31;58446;41.490;22.098;2023-07-13T10:51:26;36.28;29.88
70826;SHT31;58446;41.490;22.098;2023-07-13T10:54:12;36.39;30.45
70826;SHT31;58446;41.490;22.098;2023-07-13T10:56:42;36.49;30.36
70826;SHT31;58446;41.490;22.098;2023-07-13T11:04:12;36.32;31.06
70826;SHT31;58446;41.490;22.098;2023-07-13T11:06:41;36.36;30.98
70826;SHT31;58446;41.490;22.098;2023-07-13T11:11:56;36.21;31.75
70826;SHT31;58446;41.490;22.098;2023-07-13T11:14:35;36.29;33.86
70826;SHT31;58446;41.490;22.098;2023-07-13T11:19:53;36.51;32.07
70826;SHT31;58446;41.490;22.098;2023-07-13T11:22:25;36.61;32.40
70826;SHT31;58446;41.490;22.098;2023-07-13T11:25:06;36.61;31.96
70826;SHT31;58446;41.490;22.098;2023-07-13T11:27:50;36.53;32.91
70826;SHT31;58446;41.490;22.098;2023-07-13T11:33:20;36.59;32.82
70826;SHT31;58446;41.490;22.098;2023-07-13T11:36:03;36.72;32.84
70826;SHT31;58446;41.490;22.098;2023-07-13T11:38:41;36.82;32.18
70826;SHT31;58446;41.490;22.098;2023-07-13T11:43:41;36.97;33.72
70826;SHT31;58446;41.490;22.098;2023-07-13T11:46:33;37.20;34.19
70826;SHT31;58446;41.490;22.098;2023-07-13T11:48:59;37.30;32.66
70826;SHT31;58446;41.490;22.098;2023-07-13T11:51:33;37.35;33.40
70826;SHT31;58446;41.490;22.098;2023-07-13T11:54:03;37.27;32.89
70826;SHT31;58446;41.490;22.098;2023-07-13T11:56:30;37.06;33.47
70826;SHT31;58446;41.490;22.098;2023-07-13T11:59:02;37.04;32.56
70826;SHT31;58446;41.490;22.098;2023-07-13T12:01:30;37.03;33.65
70826;SHT31;58446;41.490;22.098;2023-07-13T12:04:02;37.03;33.56
70826;SHT31;58446;41.490;22.098;2023-07-13T12:06:29;36.89;32.82
70826;SHT31;58446;41.490;22.098;2023-07-13T12:09:03;36.76;33.42
70826;SHT31;58446;41.490;22.098;2023-07-13T12:11:40;36.92;33.58
70826;SHT31;58446;41.490;22.098;2023-07-13T12:14:15;37.11;34.02
70826;SHT31;58446;41.490;22.098;2023-07-13T12:16:41;37.21;32.77
70826;SHT31;58446;41.490;22.098;2023-07-13T12:19:22;37.42;32.78
70826;SHT31;58446;41.490;22.098;2023-07-13T12:21:49;37.61;32.74
70826;SHT31;58446;41.490;22.098;2023-07-13T12:24:35;37.77;32.34
70826;SHT31;58446;41.490;22.098;2023-07-13T12:27:03;37.62;32.09
70826;SHT31;58446;41.490;22.098;2023-07-13T12:29:32;37.42;31.75
70826;SHT31;58446;41.490;22.098;2023-07-13T12:31:58;37.38;32.17
70826;SHT31;58446;41.490;22.098;2023-07-13T12:34:26;37.45;32.33
70826;SHT31;58446;41.490;22.098;2023-07-13T12:36:59;37.58;31.73
70826;SHT31;58446;41.490;22.098;2023-07-13T12:39:44;37.71;31.43
70826;SHT31;58446;41.490;22.098;2023-07-13T12:44:42;37.93;30.62
70826;SHT31;58446;41.490;22.098;2023-07-13T12:47:15;37.92;30.43
70826;SHT31;58446;41.490;22.098;2023-07-13T12:49:49;37.98;30.73
70826;SHT31;58446;41.490;22.098;2023-07-13T12:52:28;37.96;30.63
70826;SHT31;58446;41.490;22.098;2023-07-13T12:55:07;38.04;31.05
70826;SHT31;58446;41.490;22.098;2023-07-13T12:58:02;38.02;31.25
70826;SHT31;58446;41.490;22.098;2023-07-13T13:00:35;38.11;30.70
70826;SHT31;58446;41.490;22.098;2023-07-13T13:03:21;38.16;30.49
70826;SHT31;58446;41.490;22.098;2023-07-13T13:08:53;38.18;30.88
70826;SHT31;58446;41.490;22.098;2023-07-13T13:11:20;38.23;30.87
70826;SHT31;58446;41.490;22.098;2023-07-13T13:13:46;38.22;31.01
70826;SHT31;58446;41.490;22.098;2023-07-13T13:16:32;38.20;31.12
70826;SHT31;58446;41.490;22.098;2023-07-13T13:19:20;38.28;29.10
70826;SHT31;58446;41.490;22.098;2023-07-13T13:21:49;38.29;29.99
70826;SHT31;58446;41.490;22.098;2023-07-13T13:24:20;38.30;30.50
70826;SHT31;58446;41.490;22.098;2023-07-13T13:26:47;38.37;29.54
70826;SHT31;58446;41.490;22.098;2023-07-13T13:29:16;38.29;30.35
70826;SHT31;58446;41.490;22.098;2023-07-13T13:31:42;38.19;31.05
70826;SHT31;58446;41.490;22.098;2023-07-13T13:34:10;38.09;30.63
70826;SHT31;58446;41.490;22.098;2023-07-13T13:36:37;38.16;30.78
70826;SHT31;58446;41.490;22.098;2023-07-13T13:39:10;38.23;30.80
70826;SHT31;58446;41.490;22.098;2023-07-13T13:41:42;38.29;29.09
70826;SHT31;58446;41.490;22.098;2023-07-13T13:44:09;38.33;29.32
70826;SHT31;58446;41.490;22.098;2023-07-13T13:46:36;38.46;29.73
70826;SHT31;58446;41.490;22.098;2023-07-13T13:49:02;38.52;29.88
70826;SHT31;58446;41.490;22.098;2023-07-13T13:51:28;38.59;29.84
70826;SHT31;58446;41.490;22.098;2023-07-13T13:53:54;38.64;28.83
70826;SHT31;58446;41.490;22.098;2023-07-13T13:56:21;38.66;29.06
70826;SHT31;58446;41.490;22.098;2023-07-13T13:58:47;38.73;29.51
70826;SHT31;58446;41.490;22.098;2023-07-13T14:01:17;38.77;29.10
70826;SHT31;58446;41.490;22.098;2023-07-13T14:03:44;38.76;29.35
70826;SHT31;58446;41.490;22.098;2023-07-13T14:06:15;38.71;29.39
70826;SHT31;58446;41.490;22.098;2023-07-13T14:08:41;38.73;29.82
70826;SHT31;58446;41.490;22.098;2023-07-13T14:11:12;38.71;30.09
70826;SHT31;58446;41.490;22.098;2023-07-13T14:13:52;38.71;30.89
70826;SHT31;58446;41.490;22.098;2023-07-13T14:16:21;38.70;30.39
70826;SHT31;58446;41.490;22.098;2023-07-13T14:18:52;38.67;30.26
70826;SHT31;58446;41.490;22.098;2023-07-13T14:21:20;38.70;31.03
70826;SHT31;58446;41.490;22.098;2023-07-13T14:23:48;38.73;31.47
70826;SHT31;58446;41.490;22.098;2023-07-13T14:26:26;38.80;30.77
70826;SHT31;58446;41.490;22.098;2023-07-13T14:28:55;38.81;31.48
70826;SHT31;58446;41.490;22.098;2023-07-13T14:31:22;38.84;30.96
70826;SHT31;58446;41.490;22.098;2023-07-13T14:33:49;38.79;30.87
70826;SHT31;58446;41.490;22.098;2023-07-13T14:36:23;38.69;31.70
70826;SHT31;58446;41.490;22.098;2023-07-13T14:38:51;38.70;31.62
70826;SHT31;58446;41.490;22.098;2023-07-13T14:41:16;38.71;31.66
70826;SHT31;58446;41.490;22.098;2023-07-13T14:43:42;38.69;32.36
70826;SHT31;58446;41.490;22.098;2023-07-13T14:46:28;38.69;31.72
70826;SHT31;58446;41.490;22.098;2023-07-13T14:49:02;38.70;31.26
70826;SHT31;58446;41.490;22.098;2023-07-13T14:51:29;38.76;32.45
70826;SHT31;58446;41.490;22.098;2023-07-13T14:53:56;38.74;31.37
70826;SHT31;58446;41.490;22.098;2023-07-13T14:56:21;38.74;31.54
70826;SHT31;58446;41.490;22.098;2023-07-13T14:58:47;38.71;31.85
70826;SHT31;58446;41.490;22.098;2023-07-13T15:01:14;38.64;31.10
70826;SHT31;58446;41.490;22.098;2023-07-13T15:03:44;38.63;32.30
70826;SHT31;58446;41.490;22.098;2023-07-13T15:06:12;38.62;32.11
70826;SHT31;58446;41.490;22.098;2023-07-13T15:08:39;38.56;32.08
70826;SHT31;58446;41.490;22.098;2023-07-13T15:11:07;38.58;32.73
70826;SHT31;58446;41.490;22.098;2023-07-13T15:13:33;38.62;32.64
70826;SHT31;58446;41.490;22.098;2023-07-13T15:16:01;38.59;32.47
70826;SHT31;58446;41.490;22.098;2023-07-13T15:18:27;38.53;32.76
70826;SHT31;58446;41.490;22.098;2023-07-13T15:20:53;38.50;33.05
70826;SHT31;58446;41.490;22.098;2023-07-13T15:23:21;38.50;32.92
70826;SHT31;58446;41.490;22.098;2023-07-13T15:25:48;38.48;33.23
70826;SHT31;58446;41.490;22.098;2023-07-13T15:28:15;38.45;33.48
70826;SHT31;58446;41.490;22.098;2023-07-13T15:30:43;38.42;33.88
70826;SHT31;58446;41.490;22.098;2023-07-13T15:33:22;38.39;33.48
70826;SHT31;58446;41.490;22.098;2023-07-13T15:35:49;38.37;32.98
70826;SHT31;58446;41.490;22.098;2023-07-13T15:38:25;38.32;33.29
70826;SHT31;58446;41.490;22.098;2023-07-13T15:40:51;38.30;33.32
70826;SHT31;58446;41.490;22.098;2023-07-13T15:43:18;38.25;33.18
70826;SHT31;58446;41.490;22.098;2023-07-13T15:45:45;38.23;34.41
70826;SHT31;58446;41.490;22.098;2023-07-13T15:48:17;38.18;33.56
70826;SHT31;58446;41.490;22.098;2023-07-13T15:50:48;38.13;34.20
70826;SHT31;58446;41.490;22.098;2023-07-13T15:53:26;38.08;34.10
70826;SHT31;58446;41.490;22.098;2023-07-13T15:55:54;38.08;34.29
70826;SHT31;58446;41.490;22.098;2023-07-13T15:58:20;38.01;33.45